Flight Track Log - Related Links

Times and Time Zones

All times are in EDT time to prevent confusion due to time zone crossing. See the SWA2626 flight status page for this flight to view local times or setup timezone preferences in your user account.

Time Position Orientation Groundspeed Altitude Reporting Facility
EDT Latitude Longitude Course Direction KTS MPH feet Rate Location/Type
Tue 05:18:07 PM 42.9167 -71.4167 215° Southwest 149 171 1,100  Level KA90
Tue 05:18:26 PM 42.8983 -71.4339 215° Southwest 183 211 1,600 1,975 Climbing Boston Center
Tue 05:19:26 PM 42.8925 -71.4908 262° West 183 211 3,700 2,150 Climbing Boston Center
Tue 05:20:26 PM 42.8972 -71.5756 274° West 219 252 5,900 3,000 Climbing Boston Center
Tue 05:21:26 PM 42.9064 -71.6889 276° West 274 315 9,700 3,300 Climbing Boston Center
Tue 05:22:26 PM 42.9156 -71.8219 275° West 312 359 12,500 2,950 Climbing Boston Center
Tue 05:23:26 PM 42.9244 -71.9411 276° West 347 399 15,600 3,050 Climbing Boston Center
Tue 05:24:26 PM 42.9356 -72.0942 276° West 366 421 18,600 2,850 Climbing Boston Center
Tue 05:25:26 PM 42.9464 -72.2386 276° West 377 434 21,300 2,450 Climbing Boston Center
Tue 05:26:26 PM 42.9631 -72.3747 280° West 394 453 23,500 2,300 Climbing Boston Center
Tue 05:27:26 PM 42.9756 -72.5281 276° West 408 470 25,900 2,250 Climbing Boston Center
Tue 05:28:26 PM 42.9794 -72.6928 272° West 420 483 28,000 1,950 Climbing Boston Center
Tue 05:29:26 PM 42.9872 -72.8544 274° West 427 491 29,800 2,000 Climbing Boston Center
Tue 05:30:26 PM 43.0033 -73.0392 277° West 445 512 32,000 2,200 Climbing Boston Center
Tue 05:31:26 PM 43.0128 -73.2039 275° West 445 512 34,200 1,850 Climbing Boston Center
Tue 05:32:26 PM 43.0239 -73.3631 276° West 445 512 35,700 900 Climbing Boston Center
Tue 05:33:26 PM 43.0289 -73.5222 273° West 440 506 36,000 150 Climbing Boston Center
Tue 05:34:26 PM 43.0397 -73.6872 275° West 435 501 36,000  Level Boston Center
Tue 05:35:26 PM 43.0503 -73.8522 275° West 441 507 36,000  Level Boston Center
Tue 05:36:26 PM 43.0583 -74.0200 274° West 441 507 36,000  Level Boston Center
Tue 05:37:38 PM 43.0686 -74.1853 275° West 441 507 36,000  Level Boston Center
Tue 05:38:38 PM 43.1306 -74.3519 297° West 407 468 36,000  Level Boston Center
Tue 05:39:38 PM 43.2119 -74.4656 315° West 407 468 36,000  Level Boston Center
Tue 05:40:38 PM 43.2892 -74.5767 314° West 412 474 36,000  Level Boston Center
Tue 05:41:38 PM 43.3683 -74.6850 315° West 407 468 36,000  Level Boston Center
Tue 05:42:38 PM 43.4389 -74.8050 309° West 401 461 36,000  Level Boston Center
Tue 05:43:38 PM 43.4311 -74.9675 266° West 387 445 36,000  Level Boston Center
Tue 05:44:38 PM 43.4025 -75.1292 256° West 414 476 36,000  Level Boston Center
Tue 05:45:38 PM 43.3714 -75.2964 256° West 440 506 36,000  Level Boston Center
Tue 05:46:38 PM 43.3467 -75.4467 257° West 446 513 36,000  Level Boston Center
Tue 05:47:38 PM 43.3194 -75.6022 257° West 446 513 36,000  Level Boston Center
Tue 05:48:38 PM 43.2919 -75.7636 257° West 441 507 36,000  Level Boston Center
Tue 05:49:38 PM 43.2642 -75.9247 257° West 441 507 36,000  Level Boston Center
Tue 05:50:38 PM 43.2342 -76.0853 256° West 441 507 36,000  Level Boston Center
Tue 05:52:10 PM 43.1853 -76.3544 256° West 442 509 36,000  Level Cleveland Center
Tue 05:53:10 PM 43.1578 -76.5186 257° West 442 509 36,000  Level Cleveland Center
Tue 05:54:10 PM 43.1261 -76.6831 255° West 442 509 36,000  Level Cleveland Center
Tue 05:55:10 PM 43.0994 -76.8242 256° West 442 509 36,000  Level Cleveland Center
Tue 05:56:10 PM 43.0650 -76.9881 254° West 442 509 36,000  Level Cleveland Center
Tue 05:57:10 PM 43.0367 -77.1489 257° West 442 509 36,000  Level Cleveland Center
Tue 05:58:10 PM 43.0039 -77.3153 255° West 447 514 36,000  Level Cleveland Center
Tue 05:59:10 PM 42.9750 -77.4731 256° West 447 514 36,000  Level Cleveland Center
Tue 06:00:10 PM 42.9436 -77.6364 255° West 441 507 36,000  Level Cleveland Center
Tue 06:01:10 PM 42.9142 -77.7936 256° West 441 507 36,000  Level Cleveland Center
Tue 06:02:10 PM 42.8825 -77.9536 255° West 441 507 36,000  Level Cleveland Center
Tue 06:03:10 PM 42.8489 -78.1278 255° West 441 507 36,000  Level Cleveland Center
Tue 06:04:10 PM 42.8167 -78.2850 254° West 441 507 36,000  Level Cleveland Center
Tue 06:05:10 PM 42.7864 -78.4417 255° West 441 507 36,000  Level Cleveland Center
Tue 06:06:10 PM 42.7517 -78.6011 254° West 441 507 36,000  Level Cleveland Center
Tue 06:07:10 PM 42.7208 -78.7575 255° West 441 507 36,000  Level Cleveland Center
Tue 06:08:10 PM 42.6878 -78.9139 254° West 436 502 36,000  Level Cleveland Center
Tue 06:09:10 PM 42.6567 -79.0728 255° West 436 502 36,000  Level Cleveland Center
Tue 06:10:10 PM 42.6231 -79.2261 253° West 436 502 36,000  Level Cleveland Center
Tue 06:11:10 PM 42.5917 -79.3817 255° West 436 502 36,000  Level Cleveland Center
Tue 06:12:10 PM 42.5575 -79.5347 253° West 431 496 36,000  Level Cleveland Center
Tue 06:13:10 PM 42.5256 -79.6900 254° West 431 496 36,000  Level Cleveland Center
Tue 06:14:10 PM 42.4953 -79.8425 255° West 431 496 36,000  Level Cleveland Center
Tue 06:15:10 PM 42.4567 -80.0006 252° West 436 502 36,000  Level Cleveland Center
Tue 06:16:10 PM 42.4219 -80.1556 253° West 437 503 36,000  Level Cleveland Center
Tue 06:17:10 PM 42.3889 -80.3106 254° West 437 503 36,000  Level Cleveland Center
Tue 06:18:10 PM 42.3539 -80.4594 252° West 432 497 36,000  Level Cleveland Center
Tue 06:19:10 PM 42.3206 -80.6169 254° West 432 497 36,000  Level Cleveland Center
Tue 06:20:10 PM 42.2892 -80.7486 252° West 432 497 36,000  Level Cleveland Center
Tue 06:21:10 PM 42.2533 -80.9031 253° West 432 497 36,000  Level Cleveland Center
Tue 06:22:10 PM 42.2194 -81.0542 253° West 427 491 36,000  Level Cleveland Center
Tue 06:23:10 PM 42.1833 -81.2081 252° West 427 491 36,000  Level Cleveland Center
Tue 06:24:10 PM 42.1492 -81.3561 253° West 422 486 36,000  Level Cleveland Center
Tue 06:25:10 PM 42.1167 -81.5097 254° West 422 486 36,000  Level Cleveland Center
Tue 06:26:10 PM 42.0800 -81.6603 252° West 422 486 36,000  Level Cleveland Center
Tue 06:27:10 PM 42.0450 -81.8133 253° West 427 491 36,000  Level Cleveland Center
Tue 06:28:10 PM 42.0036 -81.9803 252° West 427 491 36,000  Level Cleveland Center
Tue 06:29:10 PM 41.9661 -82.1358 252° West 427 491 36,000  Level Cleveland Center
Tue 06:30:10 PM 41.9328 -82.2747 252° West 432 497 36,000  Level Cleveland Center
Tue 06:31:10 PM 41.8931 -82.4297 251° West 439 505 36,000  Level Cleveland Center
Tue 06:32:10 PM 41.8550 -82.5847 252° West 439 505 36,000  Level Cleveland Center
Tue 06:33:10 PM 41.8167 -82.7397 252° West 439 505 36,000  Level Cleveland Center
Tue 06:34:10 PM 41.7739 -82.9081 251° West 439 505 36,000  Level Cleveland Center
Tue 06:35:10 PM 41.7350 -83.0597 251° West 439 505 36,000  Level Cleveland Center
Tue 06:36:10 PM 41.7006 -83.2142 253° West 439 505 36,000  Level Cleveland Center
Tue 06:37:10 PM 41.6572 -83.3653 249° West 439 505 36,000  Level Cleveland Center
Tue 06:38:10 PM 41.6219 -83.5219 253° West 439 505 36,000  Level Cleveland Center
Tue 06:39:10 PM 41.5828 -83.6703 251° West 434 499 36,000  Level Cleveland Center
Tue 06:41:40 PM 41.4903 -84.0381 252° West 421 484 36,000  Level Chicago Center
Tue 06:42:42 PM 41.4625 -84.1886 256° West 423 487 36,000 -1,016 Level Chicago Center
Tue 06:43:44 PM 41.4678 -84.3394 273° West 412 474 33,900 -1,645 Descending Chicago Center
Tue 06:44:46 PM 41.4750 -84.4903 274° West 409 471 32,600 -1,839 Descending Chicago Center
Tue 06:45:48 PM 41.4806 -84.6475 273° West 421 484 30,100 -1,258 Descending Chicago Center
Tue 06:46:50 PM 41.4869 -84.8064 273° West 429 494 30,000 -48 Descending Chicago Center
Tue 06:47:52 PM 41.4933 -84.9975 273° West 432 497 30,000 -194 Level Chicago Center
Tue 06:48:54 PM 41.4992 -85.1589 273° West 433 498 29,600 -1,742 Descending Chicago Center
Tue 06:49:56 PM 41.5031 -85.3219 272° West 435 501 26,400 -2,710 Descending Chicago Center
Tue 06:50:58 PM 41.5078 -85.4864 272° West 434 499 24,000 -1,536 Descending Chicago Center
Tue 06:52:01 PM 41.5144 -85.6422 273° West 417 480 23,200 -1,248 Descending Chicago Center
Tue 06:53:03 PM 41.5183 -85.7972 272° West 414 476 21,400 -2,081 Descending Chicago Center
Tue 06:54:05 PM 41.5228 -85.9422 272° West 396 456 18,900 -2,323 Descending Chicago Center
Tue 06:55:07 PM 41.5247 -86.0844 271° West 382 440 16,600 -2,323 Descending Chicago Center
Tue 06:56:09 PM 41.5236 -86.2194 269° West 366 421 14,100 -2,565 Descending Chicago Center
Tue 06:57:11 PM 41.5231 -86.3764 270° West 352 405 11,300 -1,500 Descending Chicago Center
Tue 06:58:13 PM 41.5219 -86.4917 269° West 310 357 11,000 -581 Descending Chicago Center
Tue 06:59:15 PM 41.5208 -86.5922 269° West 275 316 10,100 -435 Descending Chicago Center
Tue 07:00:17 PM 41.5194 -86.6883 269° West 261 300 10,100  Level Chicago Center
Tue 07:01:19 PM 41.4947 -86.7692 248° West 222 255 10,100  Level Chicago Center
Tue 07:02:21 PM 41.4817 -86.8456 257° West 226 260 10,100  Level Chicago Center
Tue 07:03:23 PM 41.4900 -86.9272 278° West 224 258 10,100 -242 Level Chicago Center
Tue 07:04:25 PM 41.4986 -87.0122 278° West 231 266 9,600 -1,065 Descending Chicago Center
Tue 07:05:27 PM 41.5103 -87.1111 279° West 226 260 7,900 -1,345 Descending Chicago Center
Tue 07:06:21 PM 41.5167 -87.1833 277° West 218 251 7,000 -895 Descending Chicago TRACON
Tue 07:07:21 PM 41.5333 -87.2667 285° West 231 266 6,200 -900 Descending Chicago TRACON
Tue 07:08:21 PM 41.5667 -87.3500 298° West 240 276 5,200 -650 Descending Chicago TRACON
Tue 07:09:21 PM 41.5833 -87.4167 289° West 207 238 4,900 -50 Descending Chicago TRACON
Tue 07:10:21 PM 41.6167 -87.4833 304° West 180 207 5,100 158 Climbing Chicago TRACON
Tue 07:10:37 PM 41.6164 -87.4950 268° West 192 221 5,100 -769 Level Chicago Center
Tue 07:11:39 PM 41.6422 -87.5528 301° West 188 216 4,100 -774 Descending Chicago Center
Tue 07:12:41 PM 41.6817 -87.6058 315° West 199 229 3,500 -889 Descending Chicago Center
Tue 07:13:27 PM 41.7167 -87.6500 317° Northwest 208 239 2,500 -964 Descending Chicago TRACON
Tue 07:14:33 PM 41.7667 -87.6667 346° North 206 237 1,700 -381 Descending Chicago TRACON
Tue 07:15:33 PM 41.8167 -87.6667 360° North 176 203 1,700 -149 Level Chicago TRACON
Tue 07:16:34 PM 41.8167 -87.7000 270° West 128 147 1,400 -295 Descending Chicago TRACON

Login

Don't have an account? Register now (free) for customized features, flight alerts, and more!